Time;durP1;ratioP1;P1;durP2;ratioP2;P2;SDS_P1;SDS_P2;PMS_P1;PMS_P2;Temp;Humidity;BMP_temperature;BMP_pressure;BME280_temperature;BME280_humidity;BME280_pressure;Samples;Min_cycle;Max_cycle;Signal;HPM_P1;HPM_P2
2022/01/02 00:01:48;;;;;;;12.38;7.10;;;11.10;99.90;;;;;;5124343;27;20045;-88
2022/01/02 00:04:20;;;;;;;14.25;6.78;;;11.10;99.90;;;;;;5114893;27;20035;-80
2022/01/02 00:06:54;;;;;;;10.00;6.07;;;11.00;99.90;;;;;;5116652;27;20041;-86
2022/01/02 00:09:32;;;;;;;9.57;6.30;;;11.10;99.90;;;;;;5096834;27;20052;-85
2022/01/02 00:12:14;;;;;;;11.60;7.25;;;11.10;99.90;;;;;;5099609;27;20047;-87
2022/01/02 00:14:47;;;;;;;11.45;7.28;;;11.10;99.90;;;;;;5123962;27;20160;-87
2022/01/02 00:17:21;;;;;;;11.05;6.72;;;11.10;99.90;;;;;;5112574;27;20046;-85
2022/01/02 00:19:52;;;;;;;9.13;5.78;;;11.20;99.90;;;;;;5115848;27;20027;-88
2022/01/02 00:22:33;;;;;;;7.75;5.85;;;11.10;99.90;;;;;;5117660;27;20056;-87
2022/01/02 00:24:59;;;;;;;16.38;7.60;;;11.10;99.90;;;;;;5112092;27;20066;-86
2022/01/02 00:27:28;;;;;;;13.02;6.63;;;11.10;99.90;;;;;;5125085;27;20062;-88
2022/01/02 00:29:56;;;;;;;11.05;6.43;;;11.10;99.90;;;;;;5117369;27;20112;-78
2022/01/02 00:32:21;;;;;;;16.23;7.65;;;11.10;99.90;;;;;;5111352;27;20071;-86
2022/01/02 00:34:50;;;;;;;15.00;8.50;;;11.10;99.90;;;;;;5126268;27;20470;-86
2022/01/02 00:37:16;;;;;;;14.70;6.43;;;11.10;99.90;;;;;;5118293;27;20071;-86
2022/01/02 00:39:43;;;;;;;13.00;7.13;;;11.10;99.90;;;;;;5104591;27;20127;-86
2022/01/02 00:42:22;;;;;;;14.40;7.45;;;11.10;99.90;;;;;;5081438;28;20039;-86
2022/01/02 00:45:05;;;;;;;12.90;7.32;;;11.10;99.90;;;;;;5092481;28;20047;-86
2022/01/02 00:47:36;;;;;;;23.77;8.20;;;11.10;99.90;;;;;;5116288;27;20112;-86
2022/01/02 00:50:15;;;;;;;12.05;6.72;;;11.10;99.90;;;;;;5105909;28;20066;-85
2022/01/02 00:52:44;;;;;;;15.35;7.03;;;11.00;99.90;;;;;;5123485;28;20039;-87
2022/01/02 00:55:12;;;;;;;15.55;7.10;;;11.00;99.90;;;;;;5121158;28;20558;-87
2022/01/02 00:57:40;;;;;;;15.35;7.43;;;11.00;99.90;;;;;;5100448;28;20061;-86
2022/01/02 01:00:09;;;;;;;15.48;7.95;;;11.00;99.90;;;;;;5113188;28;20521;-86
2022/01/02 01:02:39;;;;;;;18.17;7.07;;;11.10;99.90;;;;;;5093353;28;20405;-86
2022/01/02 01:05:09;;;;;;;11.73;6.78;;;11.00;99.90;;;;;;5124991;28;20289;-87
2022/01/02 01:07:37;;;;;;;13.57;7.53;;;11.10;99.90;;;;;;5075740;28;21113;-88
2022/01/02 01:10:08;;;;;;;18.83;7.63;;;11.10;99.90;;;;;;5093139;28;20142;-87
2022/01/02 01:12:33;;;;;;;17.73;8.38;;;11.00;99.90;;;;;;5110801;28;20108;-88
2022/01/02 01:15:00;;;;;;;18.73;7.38;;;11.10;99.90;;;;;;5113768;28;20489;-89
2022/01/02 01:17:26;;;;;;;15.30;7.50;;;11.10;99.90;;;;;;5116778;28;20039;-86
2022/01/02 01:19:53;;;;;;;18.02;7.57;;;11.10;99.90;;;;;;5114470;28;20058;-88
2022/01/02 01:22:19;;;;;;;11.20;6.68;;;11.10;99.90;;;;;;5118288;28;20047;-85
2022/01/02 01:24:45;;;;;;;18.55;7.57;;;11.20;99.90;;;;;;5122562;28;20053;-86
2022/01/02 01:27:11;;;;;;;18.08;8.45;;;11.20;99.90;;;;;;5127597;28;20098;-85
2022/01/02 01:29:37;;;;;;;18.50;8.00;;;11.10;99.90;;;;;;5102513;28;20439;-86
2022/01/02 01:32:05;;;;;;;25.83;10.27;;;11.20;99.90;;;;;;5118011;28;20047;-83
2022/01/02 01:34:31;;;;;;;21.83;8.70;;;11.20;99.90;;;;;;5112801;28;20122;-85
2022/01/02 01:36:56;;;;;;;25.83;10.30;;;11.20;99.90;;;;;;5115844;28;20565;-86
2022/01/02 01:39:22;;;;;;;15.52;7.57;;;11.20;99.90;;;;;;5116374;28;20421;-86
2022/01/02 01:41:48;;;;;;;18.27;8.20;;;11.10;99.90;;;;;;5114216;28;20038;-87
2022/01/02 01:46:41;;;;;;;20.80;8.68;;;11.20;99.90;;;;;;5114474;28;20098;-87
2022/01/02 01:49:15;;;;;;;16.23;7.97;;;11.20;99.90;;;;;;5103283;27;20489;-85
2022/01/02 01:51:41;;;;;;;16.33;8.73;;;11.20;99.90;;;;;;5122997;27;20061;-87
2022/01/02 01:54:06;;;;;;;20.85;9.52;;;11.20;99.90;;;;;;5102855;28;20051;-87
2022/01/02 01:56:32;;;;;;;19.42;9.00;;;11.10;99.90;;;;;;5112356;27;20067;-87
2022/01/02 01:58:58;;;;;;;21.30;10.57;;;11.10;99.90;;;;;;5116001;27;20135;-87
2022/01/02 02:01:23;;;;;;;21.55;9.07;;;11.10;99.90;;;;;;5128668;27;20042;-88
2022/01/02 02:03:49;;;;;;;25.42;11.93;;;11.10;99.90;;;;;;5116828;27;20061;-85
2022/01/02 02:06:14;;;;;;;27.77;11.95;;;11.10;99.90;;;;;;5112079;27;20042;-79
2022/01/02 02:08:40;;;;;;;25.92;11.38;;;11.10;99.90;;;;;;5123396;27;20039;-88
2022/01/02 02:11:06;;;;;;;18.48;9.82;;;11.10;99.90;;;;;;5098717;28;20081;-87
2022/01/02 02:13:33;;;;;;;17.13;9.18;;;11.10;99.90;;;;;;5111009;27;20042;-86
2022/01/02 02:16:00;;;;;;;24.10;10.35;;;11.10;99.90;;;;;;5121115;27;20035;-89
2022/01/02 02:18:25;;;;;;;24.63;10.80;;;11.00;99.90;;;;;;5114113;27;20074;-89
2022/01/02 02:20:51;;;;;;;29.90;10.82;;;11.00;99.90;;;;;;5105043;27;20063;-88
2022/01/02 02:23:17;;;;;;;15.50;9.10;;;11.00;99.90;;;;;;5118336;27;20052;-88
2022/01/02 02:25:43;;;;;;;17.85;11.13;;;10.90;99.90;;;;;;5114554;27;20097;-77
2022/01/02 02:28:15;;;;;;;27.30;10.30;;;11.00;99.90;;;;;;5134456;27;20074;-88
2022/01/02 02:30:44;;;;;;;19.05;9.57;;;10.90;99.90;;;;;;5116579;27;20040;-87
2022/01/02 02:33:11;;;;;;;25.95;10.07;;;10.90;99.90;;;;;;5116808;27;20051;-86
2022/01/02 02:35:39;;;;;;;21.17;11.70;;;10.90;99.90;;;;;;5121366;27;20038;-88
2022/01/02 02:38:07;;;;;;;18.13;10.25;;;10.90;99.90;;;;;;5120690;27;20077;-86
2022/01/02 02:40:34;;;;;;;24.58;11.02;;;10.90;99.90;;;;;;5129849;27;20039;-87
2022/01/02 02:50:56;;;;;;;24.27;11.75;;;10.90;99.90;;;;;;5152284;27;20055;-82
2022/01/02 02:53:22;;;;;;;19.23;10.45;;;10.80;99.90;;;;;;5146331;27;20520;-88
2022/01/02 02:55:54;;;;;;;30.27;12.90;;;10.90;99.90;;;;;;5128531;27;20043;-87
2022/01/02 03:00:59;;;;;;;19.40;10.50;;;10.80;99.90;;;;;;5112847;27;20127;-88
2022/01/02 03:03:25;;;;;;;28.20;11.50;;;10.80;99.90;;;;;;5114854;27;20188;-88
2022/01/02 03:05:51;;;;;;;21.65;10.57;;;10.80;99.90;;;;;;5127635;27;20477;-88
2022/01/02 03:08:17;;;;;;;18.67;10.73;;;10.80;99.90;;;;;;5104506;28;20066;-88
2022/01/02 03:10:43;;;;;;;31.92;13.15;;;10.80;99.90;;;;;;5117849;27;20442;-87
2022/01/02 03:13:09;;;;;;;19.90;10.77;;;10.80;99.90;;;;;;5101973;27;20043;-88
2022/01/02 03:15:34;;;;;;;17.00;11.73;;;10.80;99.90;;;;;;5124354;27;20142;-85
2022/01/02 03:18:00;;;;;;;26.40;11.60;;;10.80;99.90;;;;;;5121275;27;20035;-88
2022/01/02 03:20:25;;;;;;;25.85;11.48;;;10.80;99.90;;;;;;5121256;27;20080;-87
2022/01/02 03:22:51;;;;;;;27.40;11.02;;;10.80;99.90;;;;;;5125956;27;20028;-88
2022/01/02 03:25:17;;;;;;;21.30;10.77;;;10.80;99.90;;;;;;5139292;27;20078;-88
2022/01/02 03:27:44;;;;;;;24.45;10.23;;;10.80;99.90;;;;;;5118605;27;20416;-86
2022/01/02 03:30:11;;;;;;;21.23;9.88;;;10.80;99.90;;;;;;5104055;27;20054;-88
2022/01/02 03:32:37;;;;;;;26.20;10.52;;;10.90;99.90;;;;;;5119750;27;20051;-88
2022/01/02 03:35:03;;;;;;;21.17;11.90;;;10.90;99.90;;;;;;5126711;27;20044;-89
2022/01/02 03:37:32;;;;;;;19.75;10.35;;;10.80;99.90;;;;;;5114725;27;20079;-88
2022/01/02 03:39:59;;;;;;;23.08;10.85;;;10.90;99.90;;;;;;5119128;27;20092;-89
2022/01/02 03:42:24;;;;;;;20.02;11.05;;;10.90;99.90;;;;;;5125978;27;20039;-87
2022/01/02 03:44:50;;;;;;;23.90;12.20;;;10.90;99.90;;;;;;5110863;27;20058;-88
2022/01/02 03:47:16;;;;;;;22.25;10.25;;;10.80;99.90;;;;;;5118201;27;20043;-88
2022/01/02 03:49:41;;;;;;;22.52;10.85;;;10.90;99.90;;;;;;5126580;27;20103;-88
2022/01/02 03:52:08;;;;;;;21.23;9.32;;;10.80;99.90;;;;;;5126459;27;20127;-87
2022/01/02 03:54:34;;;;;;;16.73;10.95;;;10.90;99.90;;;;;;5094374;28;20052;-88
2022/01/02 03:56:59;;;;;;;18.30;11.13;;;10.90;99.90;;;;;;5134246;27;20042;-88
2022/01/02 03:59:25;;;;;;;21.83;11.23;;;10.90;99.90;;;;;;5133706;27;20397;-88
2022/01/02 04:01:51;;;;;;;22.45;9.80;;;10.90;99.90;;;;;;5114779;27;20035;-89
2022/01/02 04:04:17;;;;;;;24.02;9.55;;;10.90;99.90;;;;;;5119625;27;20117;-86
2022/01/02 04:06:42;;;;;;;20.33;10.15;;;11.00;99.90;;;;;;5106626;27;20058;-78
2022/01/02 04:09:08;;;;;;;24.42;10.13;;;11.00;99.90;;;;;;5114468;27;20126;-87
2022/01/02 04:11:34;;;;;;;22.33;10.77;;;10.90;99.90;;;;;;5103793;28;20071;-87
2022/01/02 04:13:59;;;;;;;19.80;9.77;;;10.90;99.90;;;;;;5112076;28;20039;-89
2022/01/02 04:16:25;;;;;;;21.23;9.73;;;10.90;99.90;;;;;;5119223;27;20035;-88
2022/01/02 04:18:51;;;;;;;25.90;11.02;;;11.00;99.90;;;;;;5128771;27;20176;-89
2022/01/02 04:21:17;;;;;;;26.08;9.70;;;11.00;99.90;;;;;;5114463;27;20047;-89
2022/01/02 04:23:42;;;;;;;17.00;9.07;;;11.00;99.90;;;;;;5100143;28;20052;-78
2022/01/02 04:26:08;;;;;;;24.60;9.48;;;11.00;99.90;;;;;;5114580;27;20123;-88
2022/01/02 04:28:34;;;;;;;31.85;11.38;;;11.00;99.90;;;;;;5123132;27;20050;-89
2022/01/02 04:30:59;;;;;;;25.67;10.07;;;11.00;99.90;;;;;;5129123;27;20035;-86
2022/01/02 04:33:25;;;;;;;20.35;10.57;;;11.00;99.90;;;;;;5131236;27;20043;-89
2022/01/02 04:35:51;;;;;;;26.13;9.07;;;11.00;99.90;;;;;;5098513;28;20044;-88
2022/01/02 04:38:16;;;;;;;21.77;10.27;;;11.10;99.90;;;;;;5114668;27;20169;-88
2022/01/02 04:40:42;;;;;;;20.08;9.15;;;11.10;99.90;;;;;;5111485;28;20057;-88
2022/01/02 04:43:08;;;;;;;28.55;9.25;;;11.10;99.90;;;;;;5098608;27;20051;-88
2022/01/02 04:45:34;;;;;;;27.23;9.73;;;11.10;99.90;;;;;;5092196;28;20056;-88
2022/01/02 04:48:00;;;;;;;23.48;9.68;;;11.10;99.90;;;;;;5115588;28;20377;-88
2022/01/02 04:50:25;;;;;;;26.42;9.63;;;11.10;99.90;;;;;;5118537;27;20039;-86
2022/01/02 04:52:51;;;;;;;19.73;9.77;;;11.10;99.90;;;;;;5112057;28;20039;-88
2022/01/02 04:55:17;;;;;;;21.33;10.27;;;11.10;99.90;;;;;;5122818;28;20044;-88
2022/01/02 04:57:43;;;;;;;22.88;10.43;;;11.10;99.90;;;;;;5112896;28;20497;-78
2022/01/02 05:00:09;;;;;;;21.58;9.85;;;11.10;99.90;;;;;;5093980;28;20043;-87
2022/01/02 05:02:34;;;;;;;18.63;9.13;;;11.10;99.90;;;;;;5128553;28;20488;-87
2022/01/02 05:05:00;;;;;;;22.35;8.88;;;11.10;99.90;;;;;;5113318;28;20043;-86
2022/01/02 05:07:26;;;;;;;26.67;9.77;;;11.10;99.90;;;;;;5121473;28;20066;-89
2022/01/02 05:09:51;;;;;;;15.90;7.35;;;11.10;99.90;;;;;;5114001;28;20381;-85
2022/01/02 05:12:17;;;;;;;21.60;7.78;;;11.20;99.90;;;;;;5112104;28;20047;-88
2022/01/02 05:14:43;;;;;;;18.45;8.93;;;11.10;99.90;;;;;;5134536;28;20039;-78
2022/01/02 05:17:08;;;;;;;20.40;8.88;;;11.20;99.90;;;;;;5103324;28;20485;-88
2022/01/02 05:19:34;;;;;;;20.08;7.50;;;11.20;99.90;;;;;;5133404;28;20041;-85
2022/01/02 05:21:59;;;;;;;16.02;6.63;;;11.20;99.90;;;;;;5128172;28;20015;-83
2022/01/02 05:24:25;;;;;;;16.73;7.00;;;11.20;99.90;;;;;;5138890;27;20035;-84
2022/01/02 05:26:53;;;;;;;15.52;7.20;;;11.20;99.90;;;;;;5132967;27;20130;-85
2022/01/02 05:29:19;;;;;;;17.33;6.43;;;11.20;99.90;;;;;;5145320;27;20047;-80
2022/01/02 05:31:45;;;;;;;20.25;7.55;;;11.30;99.90;;;;;;5133041;28;20031;-81
2022/01/02 05:34:10;;;;;;;17.02;6.25;;;11.30;99.90;;;;;;5154725;27;20054;-80
2022/01/02 05:36:36;;;;;;;23.00;7.25;;;11.40;99.90;;;;;;5141555;27;20054;-87
2022/01/02 05:39:02;;;;;;;21.35;7.38;;;11.40;99.90;;;;;;5119889;27;20039;-78
2022/01/02 05:41:29;;;;;;;18.90;6.78;;;11.40;99.90;;;;;;5145639;27;20054;-88
2022/01/02 05:43:55;;;;;;;18.65;5.35;;;11.40;99.90;;;;;;5148119;27;20040;-77
2022/01/02 05:46:21;;;;;;;16.75;5.90;;;11.40;99.90;;;;;;5149684;27;20106;-85
2022/01/02 05:48:47;;;;;;;25.00;6.55;;;11.40;99.90;;;;;;5121666;27;20080;-86
2022/01/02 05:51:13;;;;;;;17.75;6.32;;;11.40;99.90;;;;;;5119816;27;20044;-83
2022/01/02 05:53:39;;;;;;;19.52;5.70;;;11.40;99.90;;;;;;5125585;27;20457;-86
2022/01/02 05:56:05;;;;;;;35.58;7.05;;;11.40;99.90;;;;;;5134164;27;20382;-84
2022/01/02 05:58:31;;;;;;;16.13;5.65;;;11.40;99.90;;;;;;5132771;27;20043;-87
2022/01/02 06:00:56;;;;;;;16.85;5.50;;;11.40;99.90;;;;;;5121302;27;20485;-89
2022/01/02 06:03:22;;;;;;;20.10;5.07;;;11.40;99.90;;;;;;5116130;27;20072;-89
2022/01/02 06:05:48;;;;;;;17.63;5.95;;;11.50;99.90;;;;;;5120686;27;20051;-86
2022/01/02 06:08:13;;;;;;;17.45;5.93;;;11.40;99.90;;;;;;5098061;27;21618;-77
2022/01/02 06:10:39;;;;;;;22.38;6.60;;;11.50;99.90;;;;;;5126998;27;20046;-87
2022/01/02 06:13:04;;;;;;;13.93;6.63;;;11.40;99.90;;;;;;5109202;28;20059;-89
2022/01/02 06:15:30;;;;;;;17.55;6.00;;;11.40;99.90;;;;;;5127141;27;20512;-87
2022/01/02 06:17:56;;;;;;;28.83;6.22;;;11.40;99.90;;;;;;5130114;27;20035;-89
2022/01/02 06:20:21;;;;;;;15.65;6.60;;;11.50;99.90;;;;;;5133778;27;20100;-88
2022/01/02 06:22:47;;;;;;;16.45;6.22;;;11.40;99.90;;;;;;5125213;27;20043;-87
2022/01/02 06:25:12;;;;;;;13.10;5.72;;;11.40;99.90;;;;;;5122210;27;20055;-87
2022/01/02 06:27:39;;;;;;;12.07;5.65;;;11.40;99.90;;;;;;5113095;27;20044;-88
2022/01/02 06:30:05;;;;;;;17.58;6.18;;;11.40;99.90;;;;;;5095011;28;20060;-88
2022/01/02 06:32:31;;;;;;;19.02;7.15;;;11.40;99.90;;;;;;5095300;27;20119;-87
2022/01/02 06:34:56;;;;;;;17.15;5.93;;;11.40;99.90;;;;;;5126276;27;20113;-86
2022/01/02 06:37:22;;;;;;;14.73;5.70;;;11.40;99.90;;;;;;5122233;27;20126;-87
2022/01/02 06:39:47;;;;;;;17.42;6.95;;;11.50;99.90;;;;;;5115517;27;20047;-86
2022/01/02 06:42:13;;;;;;;12.13;5.00;;;11.50;99.90;;;;;;5095787;27;20044;-85
2022/01/02 06:44:38;;;;;;;27.02;6.57;;;11.50;99.90;;;;;;5126504;27;20428;-87
2022/01/02 06:47:04;;;;;;;12.15;5.18;;;11.50;99.90;;;;;;5115658;27;20473;-87
2022/01/02 06:49:30;;;;;;;13.65;4.65;;;11.50;99.90;;;;;;5114874;27;20067;-87
2022/01/02 06:51:55;;;;;;;14.80;5.22;;;11.50;99.90;;;;;;5128176;27;20396;-86
2022/01/02 06:54:21;;;;;;;18.23;4.85;;;11.50;99.90;;;;;;5117470;27;20044;-87
2022/01/02 06:56:47;;;;;;;14.30;4.70;;;11.60;99.90;;;;;;5122128;27;20038;-86
2022/01/02 06:59:12;;;;;;;17.55;4.65;;;11.50;99.90;;;;;;5096706;28;20074;-77
2022/01/02 07:01:38;;;;;;;20.67;5.60;;;11.60;99.90;;;;;;5114459;27;20082;-87
2022/01/02 07:04:03;;;;;;;9.73;4.22;;;11.60;99.90;;;;;;5124302;27;20485;-86
2022/01/02 07:06:29;;;;;;;13.20;5.72;;;11.60;99.90;;;;;;5097883;28;20040;-87
2022/01/02 07:08:54;;;;;;;15.27;5.13;;;11.60;99.90;;;;;;5112816;27;20074;-86
2022/01/02 07:11:20;;;;;;;12.23;3.83;;;11.60;99.90;;;;;;5125132;27;20069;-86
2022/01/02 07:13:46;;;;;;;15.68;5.47;;;11.70;99.90;;;;;;5119749;27;20044;-85
2022/01/02 07:16:11;;;;;;;14.38;3.90;;;11.70;99.90;;;;;;5094191;28;20122;-87
2022/01/02 07:18:37;;;;;;;14.68;5.53;;;11.70;99.90;;;;;;5118270;27;20035;-86
2022/01/02 07:21:02;;;;;;;18.00;4.53;;;11.70;99.90;;;;;;5124286;27;20131;-87
2022/01/02 07:23:28;;;;;;;12.43;4.43;;;11.70;99.90;;;;;;5117137;27;20048;-87
2022/01/02 07:25:53;;;;;;;9.75;3.72;;;11.70;99.90;;;;;;5111358;28;20047;-79
2022/01/02 07:28:21;;;;;;;10.63;4.40;;;11.70;99.90;;;;;;5128001;27;20561;-86
2022/01/02 07:30:46;;;;;;;11.07;3.58;;;11.70;99.90;;;;;;5112307;27;20103;-87
2022/01/02 07:33:12;;;;;;;8.98;3.88;;;11.70;99.90;;;;;;5120261;27;20039;-87
2022/01/02 07:35:37;;;;;;;16.58;5.45;;;11.70;99.90;;;;;;5111264;27;20075;-86
2022/01/02 07:38:03;;;;;;;17.08;5.57;;;11.70;99.90;;;;;;5112174;27;20047;-86
2022/01/02 07:40:29;;;;;;;13.90;3.65;;;11.70;99.90;;;;;;5113799;27;20047;-87
2022/01/02 07:42:55;;;;;;;10.25;3.55;;;11.70;99.90;;;;;;5117002;27;20401;-87
2022/01/02 07:45:21;;;;;;;15.35;4.25;;;11.70;99.90;;;;;;5113375;27;20044;-87
2022/01/02 07:47:47;;;;;;;16.38;4.78;;;11.60;99.90;;;;;;5091933;28;20036;-86
2022/01/02 07:50:13;;;;;;;15.18;4.65;;;11.60;99.90;;;;;;5094944;28;20535;-83
2022/01/02 07:52:39;;;;;;;14.80;5.78;;;11.70;99.90;;;;;;5111384;27;20040;-87
2022/01/02 07:55:05;;;;;;;12.15;4.30;;;11.60;99.90;;;;;;5077201;27;20500;-88
2022/01/02 07:57:31;;;;;;;16.17;5.18;;;11.60;99.90;;;;;;5124888;27;20069;-89
2022/01/02 07:59:56;;;;;;;13.32;5.38;;;11.60;99.90;;;;;;5109283;27;20047;-87
2022/01/02 08:02:22;;;;;;;17.23;7.03;;;11.50;99.90;;;;;;5126909;27;20343;-86
2022/01/02 08:04:47;;;;;;;21.40;5.75;;;11.50;99.90;;;;;;5121114;27;20063;-88
2022/01/02 08:07:13;;;;;;;14.45;5.60;;;11.50;99.90;;;;;;5120881;27;20412;-83
2022/01/02 08:09:38;;;;;;;16.73;4.88;;;11.50;99.90;;;;;;5119962;27;20093;-86
2022/01/02 08:12:04;;;;;;;12.70;6.13;;;11.40;99.90;;;;;;5129235;27;20100;-88
2022/01/02 08:14:31;;;;;;;19.27;5.38;;;11.40;99.90;;;;;;5080096;28;20046;-88
2022/01/02 08:16:56;;;;;;;22.38;5.63;;;11.40;99.90;;;;;;5124579;27;20466;-87
2022/01/02 08:19:22;;;;;;;14.25;4.60;;;11.40;99.90;;;;;;5117758;27;20092;-89
2022/01/02 08:21:47;;;;;;;12.02;5.55;;;11.40;99.90;;;;;;5127956;27;20066;-87
2022/01/02 08:24:13;;;;;;;14.90;6.18;;;11.40;99.90;;;;;;5122787;27;20077;-85
2022/01/02 08:26:39;;;;;;;20.75;7.03;;;11.30;99.90;;;;;;5092550;28;20054;-84
2022/01/02 08:29:04;;;;;;;17.90;6.07;;;11.30;99.90;;;;;;5116057;27;20043;-87
2022/01/02 08:31:31;;;;;;;17.45;5.93;;;11.40;99.90;;;;;;5112679;27;20427;-85
2022/01/02 08:33:57;;;;;;;12.65;6.20;;;11.30;99.90;;;;;;5128741;27;20031;-83
2022/01/02 08:36:23;;;;;;;14.27;7.00;;;11.30;99.90;;;;;;5134834;27;20059;-84
2022/01/02 08:38:49;;;;;;;11.55;6.25;;;11.30;99.90;;;;;;5130032;27;20373;-85
2022/01/02 08:41:15;;;;;;;12.32;6.05;;;11.30;99.90;;;;;;5126750;27;20035;-78
2022/01/02 08:43:41;;;;;;;15.93;7.97;;;11.30;99.90;;;;;;5122588;27;20040;-87
2022/01/02 08:46:07;;;;;;;11.30;5.78;;;11.20;99.90;;;;;;5111133;28;20074;-88
2022/01/02 08:48:33;;;;;;;13.57;5.10;;;11.20;99.90;;;;;;5095531;27;20780;-87
2022/01/02 08:50:59;;;;;;;14.93;6.15;;;11.20;99.90;;;;;;5115994;27;20046;-87
2022/01/02 08:53:27;;;;;;;13.13;5.60;;;11.20;99.90;;;;;;5112961;27;20051;-87
2022/01/02 08:55:53;;;;;;;9.43;5.68;;;11.20;99.90;;;;;;5075580;28;20043;-87
2022/01/02 08:58:19;;;;;;;15.23;7.00;;;11.20;99.90;;;;;;5110496;28;20047;-86
2022/01/02 09:00:45;;;;;;;20.27;5.85;;;11.20;99.90;;;;;;5123997;28;20076;-86
2022/01/02 09:03:11;;;;;;;15.50;6.18;;;11.20;99.90;;;;;;5110158;28;20039;-86
2022/01/02 09:05:37;;;;;;;11.88;6.05;;;11.10;99.90;;;;;;5108422;28;20146;-83
2022/01/02 09:08:03;;;;;;;15.15;7.68;;;11.10;99.90;;;;;;5119146;28;20040;-83
2022/01/02 09:10:28;;;;;;;13.55;6.03;;;11.10;99.90;;;;;;5112140;28;20094;-86
2022/01/02 09:12:54;;;;;;;12.93;6.90;;;11.20;99.90;;;;;;5124286;28;20123;-85
2022/01/02 09:15:20;;;;;;;16.42;7.97;;;11.20;99.90;;;;;;5111554;28;20047;-87
2022/01/02 09:17:45;;;;;;;10.88;5.78;;;11.10;99.90;;;;;;5125197;28;20027;-85
2022/01/02 09:20:13;;;;;;;11.40;5.07;;;11.10;99.90;;;;;;5112419;28;20126;-85
2022/01/02 09:22:39;;;;;;;13.80;7.38;;;11.10;99.90;;;;;;5092343;28;20039;-86
2022/01/02 09:25:07;;;;;;;16.02;6.38;;;11.10;99.90;;;;;;5110037;28;20031;-86
2022/01/02 09:27:33;;;;;;;20.15;6.57;;;11.10;99.90;;;;;;5109657;28;20051;-88
2022/01/02 09:29:58;;;;;;;10.45;5.95;;;11.10;99.90;;;;;;5111107;28;20040;-86
2022/01/02 09:32:24;;;;;;;16.15;7.13;;;11.10;99.90;;;;;;5121615;28;20134;-89
2022/01/02 09:34:50;;;;;;;17.13;5.70;;;11.10;99.90;;;;;;5110586;28;20040;-85
2022/01/02 09:37:15;;;;;;;18.83;8.95;;;11.10;99.90;;;;;;5090887;28;20032;-84
2022/01/02 09:39:41;;;;;;;9.18;6.78;;;11.10;99.90;;;;;;5091278;28;20047;-86
2022/01/02 09:42:10;;;;;;;19.15;6.50;;;11.00;99.90;;;;;;5109968;28;20063;-84
2022/01/02 09:44:36;;;;;;;9.48;5.45;;;11.00;99.90;;;;;;5110671;28;20536;-86
2022/01/02 09:47:02;;;;;;;18.33;7.88;;;11.00;99.90;;;;;;5109323;28;20077;-75
2022/01/02 09:49:30;;;;;;;12.77;5.93;;;11.00;99.90;;;;;;5109854;28;20039;-85
2022/01/02 09:51:56;;;;;;;10.18;6.45;;;11.00;99.90;;;;;;5079632;28;20062;-85
2022/01/02 09:54:22;;;;;;;16.23;5.97;;;11.10;99.90;;;;;;5090403;28;20044;-84
2022/01/02 09:56:48;;;;;;;8.40;5.30;;;11.00;99.90;;;;;;5109967;28;20500;-84
2022/01/02 09:59:13;;;;;;;16.85;6.78;;;11.10;99.90;;;;;;5123098;28;20043;-77
2022/01/02 10:01:39;;;;;;;11.73;5.85;;;11.10;99.90;;;;;;5108927;28;20119;-86
2022/01/02 10:04:04;;;;;;;18.83;6.20;;;11.10;99.90;;;;;;5103019;28;20225;-85
2022/01/02 10:06:40;;;;;;;16.13;6.72;;;11.10;99.90;;;;;;5113263;28;20111;-86
2022/01/02 10:09:10;;;;;;;12.00;6.72;;;11.00;99.90;;;;;;5122824;27;20046;-83
2022/01/02 10:11:40;;;;;;;14.90;7.38;;;11.10;99.90;;;;;;5134419;27;20122;-87
2022/01/02 10:14:06;;;;;;;11.98;7.38;;;11.00;99.90;;;;;;5109428;28;20079;-85
2022/01/02 10:16:43;;;;;;;13.25;7.90;;;11.10;99.90;;;;;;5113550;27;20075;-85
2022/01/02 10:19:26;;;;;;;12.45;8.00;;;11.10;99.90;;;;;;5116210;27;20058;-84
2022/01/02 10:22:00;;;;;;;18.30;7.28;;;11.10;99.90;;;;;;5095684;28;20043;-85
2022/01/02 10:24:27;;;;;;;13.15;6.22;;;11.10;99.90;;;;;;5111173;28;20114;-84
2022/01/02 10:27:07;;;;;;;24.45;7.88;;;11.10;99.90;;;;;;5117398;27;20050;-80
2022/01/02 10:29:50;;;;;;;18.33;7.10;;;11.10;99.90;;;;;;5095663;28;20412;-86
2022/01/02 10:32:29;;;;;;;15.15;7.60;;;11.10;99.90;;;;;;5120114;27;20489;-86
2022/01/02 10:35:17;;;;;;;29.90;7.40;;;11.10;99.90;;;;;;5106317;27;20073;-86
2022/01/02 10:38:00;;;;;;;16.58;6.70;;;11.20;99.90;;;;;;5115247;27;20398;-75
2022/01/02 10:40:30;;;;;;;23.10;7.30;;;11.20;99.90;;;;;;5111860;28;20187;-80
2022/01/02 10:42:58;;;;;;;15.07;5.82;;;11.20;99.90;;;;;;5094139;28;20367;-80
2022/01/02 10:45:35;;;;;;;10.90;5.55;;;11.20;99.90;;;;;;5123225;27;20036;-82
2022/01/02 10:48:02;;;;;;;14.95;4.80;;;11.20;99.90;;;;;;5110495;27;20047;-83
2022/01/02 10:50:27;;;;;;;18.90;5.88;;;11.20;99.90;;;;;;5123833;27;20053;-84
2022/01/02 10:52:53;;;;;;;16.35;4.90;;;11.20;99.90;;;;;;5124369;27;20536;-79
2022/01/02 10:55:24;;;;;;;18.58;5.93;;;11.20;99.90;;;;;;5108827;28;20036;-83
2022/01/02 10:57:53;;;;;;;16.75;4.85;;;11.20;99.90;;;;;;5127947;27;20083;-84
2022/01/02 11:00:23;;;;;;;16.27;5.53;;;11.20;99.90;;;;;;5112070;27;20049;-81
2022/01/02 11:02:49;;;;;;;12.68;4.57;;;11.20;99.90;;;;;;5094160;28;20044;-82
2022/01/02 11:05:17;;;;;;;17.70;6.43;;;11.20;99.90;;;;;;5113139;27;20065;-78
2022/01/02 11:07:45;;;;;;;24.05;7.15;;;11.30;99.90;;;;;;5109898;27;20051;-79
2022/01/02 11:10:13;;;;;;;15.73;5.18;;;11.30;99.90;;;;;;5115989;27;20057;-84
2022/01/02 11:12:40;;;;;;;21.67;6.15;;;11.30;99.90;;;;;;5132429;27;20035;-82
2022/01/02 11:15:07;;;;;;;11.85;4.18;;;11.30;99.90;;;;;;5131865;27;20043;-83
2022/01/02 11:17:35;;;;;;;11.65;4.43;;;11.30;99.90;;;;;;5110659;27;20058;-83
2022/01/02 11:20:03;;;;;;;14.23;5.93;;;11.30;99.90;;;;;;5132174;27;20397;-82
2022/01/02 11:22:35;;;;;;;15.73;6.35;;;11.30;99.90;;;;;;5131809;27;20753;-83
2022/01/02 11:25:12;;;;;;;18.00;4.90;;;11.20;99.90;;;;;;5115702;27;20814;-81
2022/01/02 11:28:05;;;;;;;22.15;6.57;;;11.20;99.90;;;;;;5111044;27;20420;-83
2022/01/02 11:30:31;;;;;;;16.08;5.10;;;11.20;99.90;;;;;;5128452;27;20567;-82
2022/01/02 11:33:03;;;;;;;20.17;7.10;;;11.20;99.90;;;;;;5100046;28;20044;-82
2022/01/02 11:35:31;;;;;;;16.15;6.72;;;11.20;99.90;;;;;;5096048;27;20126;-83
2022/01/02 11:38:02;;;;;;;13.18;4.70;;;11.20;99.90;;;;;;5112352;27;20473;-82
2022/01/02 11:40:55;;;;;;;16.52;5.45;;;11.00;99.90;;;;;;5113153;27;20054;-79
2022/01/02 11:43:36;;;;;;;13.32;4.55;;;11.10;99.90;;;;;;5111602;27;20134;-75
2022/01/02 11:46:21;;;;;;;19.60;6.68;;;11.10;99.90;;;;;;5111340;27;20050;-80
2022/01/02 11:49:05;;;;;;;20.75;6.55;;;11.10;99.90;;;;;;5102334;27;20050;-82
2022/01/02 11:51:51;;;;;;;15.02;4.97;;;11.10;99.90;;;;;;5112762;27;20043;-82
2022/01/02 11:54:40;;;;;;;16.30;5.63;;;11.10;99.90;;;;;;5115575;27;20044;-79
2022/01/02 11:57:12;;;;;;;22.65;6.78;;;11.10;99.90;;;;;;5092379;28;20054;-80
2022/01/02 11:59:42;;;;;;;12.88;4.85;;;11.10;99.90;;;;;;5093496;28;20047;-77
2022/01/02 12:02:30;;;;;;;25.92;6.35;;;11.20;99.90;;;;;;5120090;27;20047;-81
2022/01/02 12:04:59;;;;;;;17.23;5.18;;;11.20;99.90;;;;;;5101028;27;20055;-83
2022/01/02 12:07:33;;;;;;;18.13;5.05;;;11.20;99.90;;;;;;5118274;27;20035;-81
2022/01/02 12:10:17;;;;;;;18.50;4.13;;;11.30;99.90;;;;;;5127651;27;20078;-80
2022/01/02 12:12:58;;;;;;;21.25;4.35;;;11.30;99.90;;;;;;5114352;27;20043;-82
2022/01/02 12:15:24;;;;;;;17.77;4.55;;;11.40;99.90;;;;;;5130291;27;20055;-77
2022/01/02 12:18:13;;;;;;;16.48;3.80;;;11.40;99.90;;;;;;5120452;27;20496;-81
2022/01/02 12:20:54;;;;;;;19.70;4.03;;;11.40;99.90;;;;;;5135158;27;20039;-80
2022/01/02 12:23:34;;;;;;;24.08;5.20;;;11.40;99.90;;;;;;5134077;27;20043;-81
2022/01/02 12:26:15;;;;;;;19.27;4.15;;;11.40;99.90;;;;;;5137415;27;20143;-79
2022/01/02 12:28:57;;;;;;;17.75;5.25;;;11.40;99.90;;;;;;5102270;28;20054;-82
2022/01/02 12:31:34;;;;;;;21.00;4.95;;;11.40;99.90;;;;;;5114661;28;20047;-79
2022/01/02 12:34:12;;;;;;;24.02;5.65;;;11.40;99.90;;;;;;5115875;28;20047;-81
2022/01/02 12:36:41;;;;;;;20.10;5.57;;;11.40;99.90;;;;;;5115956;28;20501;-80
2022/01/02 12:39:27;;;;;;;21.83;4.78;;;11.40;99.90;;;;;;5130047;27;20131;-83
2022/01/02 12:41:53;;;;;;;19.00;4.68;;;11.40;99.90;;;;;;5135192;27;20099;-82
2022/01/02 12:44:28;;;;;;;14.25;4.35;;;11.40;99.90;;;;;;5117909;28;20126;-81
2022/01/02 12:46:55;;;;;;;21.65;4.85;;;11.40;99.90;;;;;;5114271;28;20059;-79
2022/01/02 12:49:34;;;;;;;19.88;4.22;;;11.40;99.90;;;;;;5114189;28;20520;-81
2022/01/02 12:52:11;;;;;;;24.83;6.72;;;11.30;99.90;;;;;;5107116;27;20395;-80
2022/01/02 12:54:44;;;;;;;22.13;6.80;;;11.30;99.90;;;;;;5110886;28;20045;-81